Terminal Aerodrome Forecast
Issued by NWS Dodge City, KS

Home | Current Version | Previous Version | Text Only | Print | Product List | Glossary On
Versions: 1 2 3 4 5 6 7 8 9 10 11 12 13 14 15 16 17
000
FTUS43 KDDC 221225 AAA
TAFDDC
TAF AMD
KDDC 221225Z 2212/2312 32004KT P6SM VCSH OVC070
     FM221500 26007KT P6SM VCSH BKN030
     FM221800 30007KT P6SM -SHRA OVC040
     FM230000 VRB06KT P6SM BKN200
     FM230300 33015G25KT P6SM BKN060 BKN200=

USA.gov is the U.S. government's official web portal to all federal, state and local government web resources and services.